sensor_id;sensor_type;location;lat;lon;timestamp;P1;P2;P0
69746;PMS7003;57018;50.278;19.134;2023-03-03T00:01:25;139.00;127.00;76.00
69746;PMS7003;57018;50.278;19.134;2023-03-03T00:03:56;149.00;134.00;83.00
69746;PMS7003;57018;50.278;19.134;2023-03-03T00:06:26;164.00;141.00;82.50
69746;PMS7003;57018;50.278;19.134;2023-03-03T00:08:56;160.00;137.00;80.50
69746;PMS7003;57018;50.278;19.134;2023-03-03T00:11:26;157.50;136.50;83.50
69746;PMS7003;57018;50.278;19.134;2023-03-03T00:13:56;141.33;124.33;70.33
69746;PMS7003;57018;50.278;19.134;2023-03-03T00:16:27;144.00;121.00;69.00
69746;PMS7003;57018;50.278;19.134;2023-03-03T00:18:58;158.00;128.00;76.00
69746;PMS7003;57018;50.278;19.134;2023-03-03T00:21:29;141.00;123.00;77.00
69746;PMS7003;57018;50.278;19.134;2023-03-03T00:24:10;120.50;103.00;58.00
69746;PMS7003;57018;50.278;19.134;2023-03-03T00:26:45;124.00;108.00;65.00
69746;PMS7003;57018;50.278;19.134;2023-03-03T00:29:23;114.00;99.00;65.00
69746;PMS7003;57018;50.278;19.134;2023-03-03T00:31:57;117.00;104.00;68.00
69746;PMS7003;57018;50.278;19.134;2023-03-03T00:34:36;128.00;114.00;70.50
69746;PMS7003;57018;50.278;19.134;2023-03-03T00:37:11;135.00;113.00;66.00
69746;PMS7003;57018;50.278;19.134;2023-03-03T00:39:56;124.00;110.50;60.50
69746;PMS7003;57018;50.278;19.134;2023-03-03T00:42:30;127.00;109.00;66.00
69746;PMS7003;57018;50.278;19.134;2023-03-03T00:45:05;134.50;119.50;71.50
69746;PMS7003;57018;50.278;19.134;2023-03-03T00:47:51;127.00;111.00;67.50
69746;PMS7003;57018;50.278;19.134;2023-03-03T00:50:25;128.50;111.00;71.50
69746;PMS7003;57018;50.278;19.134;2023-03-03T00:53:09;109.00;89.50;56.50
69746;PMS7003;57018;50.278;19.134;2023-03-03T00:55:43;118.50;107.50;64.00
69746;PMS7003;57018;50.278;19.134;2023-03-03T00:58:14;116.50;103.50;63.00
69746;PMS7003;57018;50.278;19.134;2023-03-03T01:00:47;110.00;92.00;57.00
69746;PMS7003;57018;50.278;19.134;2023-03-03T01:03:19;115.00;100.50;67.50
69746;PMS7003;57018;50.278;19.134;2023-03-03T01:05:51;127.00;115.00;70.00
69746;PMS7003;57018;50.278;19.134;2023-03-03T01:08:21;112.00;102.50;56.50
69746;PMS7003;57018;50.278;19.134;2023-03-03T01:10:52;123.00;109.00;64.00
69746;PMS7003;57018;50.278;19.134;2023-03-03T01:13:25;133.00;111.00;67.00
69746;PMS7003;57018;50.278;19.134;2023-03-03T01:15:57;118.00;101.50;66.50
69746;PMS7003;57018;50.278;19.134;2023-03-03T01:18:28;113.00;91.00;61.00
69746;PMS7003;57018;50.278;19.134;2023-03-03T01:20:58;118.00;102.50;58.00
69746;PMS7003;57018;50.278;19.134;2023-03-03T01:23:28;114.00;96.00;57.50
69746;PMS7003;57018;50.278;19.134;2023-03-03T01:25:58;115.00;98.00;58.00
69746;PMS7003;57018;50.278;19.134;2023-03-03T01:28:28;117.00;92.50;60.00
69746;PMS7003;57018;50.278;19.134;2023-03-03T01:31:00;113.00;88.00;53.50
69746;PMS7003;57018;50.278;19.134;2023-03-03T01:33:31;115.00;99.00;60.00
69746;PMS7003;57018;50.278;19.134;2023-03-03T01:36:02;119.00;101.00;63.00
69746;PMS7003;57018;50.278;19.134;2023-03-03T01:38:35;111.50;93.50;57.00
69746;PMS7003;57018;50.278;19.134;2023-03-03T01:41:06;124.00;99.00;58.50
69746;PMS7003;57018;50.278;19.134;2023-03-03T01:43:41;118.50;99.50;64.00
69746;PMS7003;57018;50.278;19.134;2023-03-03T01:49:13;111.50;95.00;58.00
69746;PMS7003;57018;50.278;19.134;2023-03-03T01:51:48;118.00;100.00;57.00
69746;PMS7003;57018;50.278;19.134;2023-03-03T01:54:22;112.00;94.00;55.00
69746;PMS7003;57018;50.278;19.134;2023-03-03T01:56:56;108.00;85.00;55.00
69746;PMS7003;57018;50.278;19.134;2023-03-03T01:59:30;121.00;100.00;61.00
69746;PMS7003;57018;50.278;19.134;2023-03-03T02:02:01;128.00;110.00;64.00
69746;PMS7003;57018;50.278;19.134;2023-03-03T02:04:31;114.25;100.75;59.75
69746;PMS7003;57018;50.278;19.134;2023-03-03T02:07:04;118.00;103.00;61.00
69746;PMS7003;57018;50.278;19.134;2023-03-03T02:09:38;114.50;100.50;59.50
69746;PMS7003;57018;50.278;19.134;2023-03-03T02:12:17;119.00;96.50;57.50
69746;PMS7003;57018;50.278;19.134;2023-03-03T02:14:49;120.50;105.00;62.50
69746;PMS7003;57018;50.278;19.134;2023-03-03T02:17:19;117.00;96.00;60.00
69746;PMS7003;57018;50.278;19.134;2023-03-03T02:19:51;114.50;102.50;60.50
69746;PMS7003;57018;50.278;19.134;2023-03-03T02:22:31;120.00;109.00;67.00
69746;PMS7003;57018;50.278;19.134;2023-03-03T02:25:06;116.00;94.50;54.00
69746;PMS7003;57018;50.278;19.134;2023-03-03T02:27:41;115.00;99.00;60.00
69746;PMS7003;57018;50.278;19.134;2023-03-03T02:30:13;117.50;108.00;62.50
69746;PMS7003;57018;50.278;19.134;2023-03-03T02:32:45;110.50;93.50;56.00
69746;PMS7003;57018;50.278;19.134;2023-03-03T02:35:29;113.00;93.00;57.00
69746;PMS7003;57018;50.278;19.134;2023-03-03T02:38:03;112.00;91.00;52.00
69746;PMS7003;57018;50.278;19.134;2023-03-03T02:40:43;112.00;94.00;55.00
69746;PMS7003;57018;50.278;19.134;2023-03-03T02:43:20;115.00;97.00;60.00
69746;PMS7003;57018;50.278;19.134;2023-03-03T02:45:53;123.00;106.00;64.00
69746;PMS7003;57018;50.278;19.134;2023-03-03T02:48:23;122.00;106.00;62.00
69746;PMS7003;57018;50.278;19.134;2023-03-03T02:50:53;112.00;90.00;60.00
69746;PMS7003;57018;50.278;19.134;2023-03-03T02:55:51;122.50;107.00;62.00
69746;PMS7003;57018;50.278;19.134;2023-03-03T02:58:21;130.00;108.00;64.00
69746;PMS7003;57018;50.278;19.134;2023-03-03T03:00:50;120.50;103.00;63.50
69746;PMS7003;57018;50.278;19.134;2023-03-03T03:03:21;118.00;100.00;55.00
69746;PMS7003;57018;50.278;19.134;2023-03-03T03:05:51;117.00;91.00;55.00
69746;PMS7003;57018;50.278;19.134;2023-03-03T03:08:21;117.00;100.00;60.00
69746;PMS7003;57018;50.278;19.134;2023-03-03T03:13:22;139.00;118.00;67.00
69746;PMS7003;57018;50.278;19.134;2023-03-03T03:18:23;118.67;103.33;63.67
69746;PMS7003;57018;50.278;19.134;2023-03-03T03:20:54;116.00;102.50;63.50
69746;PMS7003;57018;50.278;19.134;2023-03-03T03:23:24;122.00;104.50;65.00
69746;PMS7003;57018;50.278;19.134;2023-03-03T03:25:54;105.00;85.00;52.00
69746;PMS7003;57018;50.278;19.134;2023-03-03T03:28:23;137.00;114.00;66.00
69746;PMS7003;57018;50.278;19.134;2023-03-03T03:30:53;126.50;113.50;67.00
69746;PMS7003;57018;50.278;19.134;2023-03-03T03:33:23;112.00;91.00;60.00
69746;PMS7003;57018;50.278;19.134;2023-03-03T03:35:54;134.50;117.50;70.00
69746;PMS7003;57018;50.278;19.134;2023-03-03T03:38:24;130.00;115.00;70.00
69746;PMS7003;57018;50.278;19.134;2023-03-03T03:40:55;120.00;108.00;69.00
69746;PMS7003;57018;50.278;19.134;2023-03-03T03:43:26;127.00;113.50;68.50
69746;PMS7003;57018;50.278;19.134;2023-03-03T03:48:24;132.00;115.50;71.50
69746;PMS7003;57018;50.278;19.134;2023-03-03T03:50:54;129.00;110.00;68.00
69746;PMS7003;57018;50.278;19.134;2023-03-03T03:53:24;131.50;113.00;71.00
69746;PMS7003;57018;50.278;19.134;2023-03-03T03:55:54;138.00;118.00;70.00
69746;PMS7003;57018;50.278;19.134;2023-03-03T03:58:24;122.00;111.50;66.00
69746;PMS7003;57018;50.278;19.134;2023-03-03T04:00:54;127.00;114.50;69.50
69746;PMS7003;57018;50.278;19.134;2023-03-03T04:03:28;121.00;106.00;70.00
69746;PMS7003;57018;50.278;19.134;2023-03-03T04:05:58;129.50;110.50;68.00
69746;PMS7003;57018;50.278;19.134;2023-03-03T04:08:28;134.50;118.00;74.50
69746;PMS7003;57018;50.278;19.134;2023-03-03T04:10:57;130.00;117.50;71.00
69746;PMS7003;57018;50.278;19.134;2023-03-03T04:13:27;125.50;109.00;68.50
69746;PMS7003;57018;50.278;19.134;2023-03-03T04:16:00;157.00;135.50;76.00
69746;PMS7003;57018;50.278;19.134;2023-03-03T04:18:30;142.00;126.00;78.00
69746;PMS7003;57018;50.278;19.134;2023-03-03T04:21:00;130.00;110.00;64.00
69746;PMS7003;57018;50.278;19.134;2023-03-03T04:23:30;149.00;132.00;79.00
69746;PMS7003;57018;50.278;19.134;2023-03-03T04:26:00;133.00;120.00;75.00
69746;PMS7003;57018;50.278;19.134;2023-03-03T04:28:30;119.00;98.00;50.50
69746;PMS7003;57018;50.278;19.134;2023-03-03T04:31:00;144.50;122.00;72.00
69746;PMS7003;57018;50.278;19.134;2023-03-03T04:33:30;147.50;127.00;75.00
69746;PMS7003;57018;50.278;19.134;2023-03-03T04:35:59;131.50;113.50;74.50
69746;PMS7003;57018;50.278;19.134;2023-03-03T04:38:29;145.00;135.00;80.00
69746;PMS7003;57018;50.278;19.134;2023-03-03T04:40:59;142.00;124.00;76.00
69746;PMS7003;57018;50.278;19.134;2023-03-03T04:43:29;133.00;112.00;67.00
69746;PMS7003;57018;50.278;19.134;2023-03-03T04:48:27;129.00;112.50;72.50
69746;PMS7003;57018;50.278;19.134;2023-03-03T04:50:57;136.00;120.00;72.00
69746;PMS7003;57018;50.278;19.134;2023-03-03T04:58:29;146.00;129.00;79.50
69746;PMS7003;57018;50.278;19.134;2023-03-03T05:05:58;130.00;115.00;70.00
69746;PMS7003;57018;50.278;19.134;2023-03-03T05:10:59;153.67;129.00;84.00
69746;PMS7003;57018;50.278;19.134;2023-03-03T05:13:28;155.50;134.00;80.00
69746;PMS7003;57018;50.278;19.134;2023-03-03T05:15:58;142.00;126.00;64.00
69746;PMS7003;57018;50.278;19.134;2023-03-03T05:18:28;161.50;140.50;89.00
69746;PMS7003;57018;50.278;19.134;2023-03-03T05:20:58;169.00;145.00;82.00
69746;PMS7003;57018;50.278;19.134;2023-03-03T05:25:59;163.00;144.50;82.00
69746;PMS7003;57018;50.278;19.134;2023-03-03T05:28:28;154.00;141.00;79.00
69746;PMS7003;57018;50.278;19.134;2023-03-03T05:30:58;151.00;135.00;81.00
69746;PMS7003;57018;50.278;19.134;2023-03-03T05:33:28;155.00;135.50;82.00
69746;PMS7003;57018;50.278;19.134;2023-03-03T05:35:58;154.00;141.00;85.00
69746;PMS7003;57018;50.278;19.134;2023-03-03T05:38:28;163.00;148.00;91.00
69746;PMS7003;57018;50.278;19.134;2023-03-03T05:40:57;172.00;142.00;82.00
69746;PMS7003;57018;50.278;19.134;2023-03-03T05:43:28;169.00;133.50;80.00
69746;PMS7003;57018;50.278;19.134;2023-03-03T05:45:58;157.00;136.00;81.00
69746;PMS7003;57018;50.278;19.134;2023-03-03T05:48:28;141.00;122.00;72.00
69746;PMS7003;57018;50.278;19.134;2023-03-03T05:50:58;138.50;117.50;65.50
69746;PMS7003;57018;50.278;19.134;2023-03-03T05:53:28;133.00;109.00;64.00
69746;PMS7003;57018;50.278;19.134;2023-03-03T05:55:58;136.00;117.00;71.00
69746;PMS7003;57018;50.278;19.134;2023-03-03T05:58:28;113.00;101.00;65.00
69746;PMS7003;57018;50.278;19.134;2023-03-03T06:00:58;122.00;106.50;65.00
69746;PMS7003;57018;50.278;19.134;2023-03-03T06:03:29;122.00;108.00;64.00
69746;PMS7003;57018;50.278;19.134;2023-03-03T06:08:27;113.50;102.00;60.00
69746;PMS7003;57018;50.278;19.134;2023-03-03T06:10:58;122.00;110.00;66.00
69746;PMS7003;57018;50.278;19.134;2023-03-03T06:13:28;135.00;110.00;57.00
69746;PMS7003;57018;50.278;19.134;2023-03-03T06:15:58;113.25;93.25;63.50
69746;PMS7003;57018;50.278;19.134;2023-03-03T06:18:28;117.00;104.00;64.00
69746;PMS7003;57018;50.278;19.134;2023-03-03T06:20:58;115.00;101.00;58.67
69746;PMS7003;57018;50.278;19.134;2023-03-03T06:23:27;107.00;89.00;55.00
69746;PMS7003;57018;50.278;19.134;2023-03-03T06:25:57;128.00;105.00;59.00
69746;PMS7003;57018;50.278;19.134;2023-03-03T06:28:27;115.33;95.33;56.00
69746;PMS7003;57018;50.278;19.134;2023-03-03T06:30:57;108.00;87.00;53.00
69746;PMS7003;57018;50.278;19.134;2023-03-03T06:33:27;107.50;85.50;51.00
69746;PMS7003;57018;50.278;19.134;2023-03-03T06:35:56;111.00;89.50;57.50
69746;PMS7003;57018;50.278;19.134;2023-03-03T06:38:26;108.00;80.00;51.50
69746;PMS7003;57018;50.278;19.134;2023-03-03T06:40:56;109.00;86.00;49.00
69746;PMS7003;57018;50.278;19.134;2023-03-03T06:43:27;104.00;87.00;48.00
69746;PMS7003;57018;50.278;19.134;2023-03-03T06:45:58;113.00;98.00;55.00
69746;PMS7003;57018;50.278;19.134;2023-03-03T06:48:27;91.00;72.00;38.00
69746;PMS7003;57018;50.278;19.134;2023-03-03T06:50:58;101.00;81.00;50.00
69746;PMS7003;57018;50.278;19.134;2023-03-03T06:53:29;109.00;90.00;54.00
69746;PMS7003;57018;50.278;19.134;2023-03-03T06:56:00;104.00;88.00;53.00
69746;PMS7003;57018;50.278;19.134;2023-03-03T06:58:35;114.00;97.00;54.50
69746;PMS7003;57018;50.278;19.134;2023-03-03T07:01:09;105.50;84.00;49.50
69746;PMS7003;57018;50.278;19.134;2023-03-03T07:03:43;103.00;81.00;50.00
69746;PMS7003;57018;50.278;19.134;2023-03-03T07:06:15;110.00;91.00;53.50
69746;PMS7003;57018;50.278;19.134;2023-03-03T07:08:50;110.00;91.00;53.00
69746;PMS7003;57018;50.278;19.134;2023-03-03T07:11:21;104.00;79.00;49.00
69746;PMS7003;57018;50.278;19.134;2023-03-03T07:13:52;110.00;96.00;55.00
69746;PMS7003;57018;50.278;19.134;2023-03-03T07:16:24;98.50;78.00;50.00
69746;PMS7003;57018;50.278;19.134;2023-03-03T07:18:55;107.00;88.50;51.00
69746;PMS7003;57018;50.278;19.134;2023-03-03T07:21:32;112.00;92.00;57.00
69746;PMS7003;57018;50.278;19.134;2023-03-03T07:24:10;109.67;96.67;56.00
69746;PMS7003;57018;50.278;19.134;2023-03-03T07:26:49;103.00;80.00;48.00
69746;PMS7003;57018;50.278;19.134;2023-03-03T07:29:22;108.50;88.50;53.00
69746;PMS7003;57018;50.278;19.134;2023-03-03T07:31:54;110.00;94.00;56.00
69746;PMS7003;57018;50.278;19.134;2023-03-03T07:34:26;113.50;98.50;59.00
69746;PMS7003;57018;50.278;19.134;2023-03-03T07:37:03;111.00;97.00;56.00
69746;PMS7003;57018;50.278;19.134;2023-03-03T07:39:42;107.50;91.00;54.00
69746;PMS7003;57018;50.278;19.134;2023-03-03T07:42:21;107.00;87.00;50.00
69746;PMS7003;57018;50.278;19.134;2023-03-03T07:44:55;103.00;79.00;47.00
69746;PMS7003;57018;50.278;19.134;2023-03-03T07:47:27;104.00;82.00;48.00
69746;PMS7003;57018;50.278;19.134;2023-03-03T07:50:07;96.00;75.00;46.00
69746;PMS7003;57018;50.278;19.134;2023-03-03T07:52:45;92.50;71.50;46.00
69746;PMS7003;57018;50.278;19.134;2023-03-03T07:55:31;90.00;69.00;41.00
69746;PMS7003;57018;50.278;19.134;2023-03-03T07:58:14;92.00;68.00;44.00
69746;PMS7003;57018;50.278;19.134;2023-03-03T08:03:56;97.00;75.00;45.00
69746;PMS7003;57018;50.278;19.134;2023-03-03T08:06:35;97.00;75.00;45.00
69746;PMS7003;57018;50.278;19.134;2023-03-03T08:14:26;96.50;73.50;44.50
69746;PMS7003;57018;50.278;19.134;2023-03-03T08:17:01;95.50;74.00;46.50
69746;PMS7003;57018;50.278;19.134;2023-03-03T08:19:34;90.00;68.50;44.00
69746;PMS7003;57018;50.278;19.134;2023-03-03T08:22:08;93.00;68.00;42.00
69746;PMS7003;57018;50.278;19.134;2023-03-03T08:24:41;95.50;73.00;43.50
69746;PMS7003;57018;50.278;19.134;2023-03-03T08:27:11;92.00;72.50;44.50
69746;PMS7003;57018;50.278;19.134;2023-03-03T08:29:41;90.00;69.00;42.00
69746;PMS7003;57018;50.278;19.134;2023-03-03T08:32:11;81.00;62.00;37.00
69746;PMS7003;57018;50.278;19.134;2023-03-03T08:34:41;86.50;69.00;41.50
69746;PMS7003;57018;50.278;19.134;2023-03-03T08:37:11;86.00;64.50;39.50
69746;PMS7003;57018;50.278;19.134;2023-03-03T08:42:10;89.00;69.00;43.50
69746;PMS7003;57018;50.278;19.134;2023-03-03T08:44:39;92.00;72.00;45.00
69746;PMS7003;57018;50.278;19.134;2023-03-03T08:47:09;93.50;70.00;41.50
69746;PMS7003;57018;50.278;19.134;2023-03-03T08:49:39;85.00;63.00;38.00
69746;PMS7003;57018;50.278;19.134;2023-03-03T08:52:09;88.00;66.00;43.00
69746;PMS7003;57018;50.278;19.134;2023-03-03T08:54:39;74.00;57.00;40.00
69746;PMS7003;57018;50.278;19.134;2023-03-03T08:57:09;86.00;64.00;40.00
69746;PMS7003;57018;50.278;19.134;2023-03-03T08:59:39;84.00;65.00;38.00
69746;PMS7003;57018;50.278;19.134;2023-03-03T09:02:09;88.00;66.00;42.00
69746;PMS7003;57018;50.278;19.134;2023-03-03T09:04:39;70.00;57.00;36.00
69746;PMS7003;57018;50.278;19.134;2023-03-03T09:07:09;77.00;63.50;38.50
69746;PMS7003;57018;50.278;19.134;2023-03-03T09:09:38;67.50;53.00;35.50
69746;PMS7003;57018;50.278;19.134;2023-03-03T09:12:12;73.00;58.00;37.00
69746;PMS7003;57018;50.278;19.134;2023-03-03T09:14:44;63.00;49.00;33.00
69746;PMS7003;57018;50.278;19.134;2023-03-03T09:17:21;75.50;55.50;36.00
69746;PMS7003;57018;50.278;19.134;2023-03-03T09:19:54;63.00;49.00;33.00
69746;PMS7003;57018;50.278;19.134;2023-03-03T09:22:30;65.50;52.00;32.00
69746;PMS7003;57018;50.278;19.134;2023-03-03T09:25:13;56.50;49.50;30.00
69746;PMS7003;57018;50.278;19.134;2023-03-03T09:27:49;68.00;53.00;30.00
69746;PMS7003;57018;50.278;19.134;2023-03-03T09:30:28;63.50;49.50;31.00
69746;PMS7003;57018;50.278;19.134;2023-03-03T09:33:21;66.00;50.00;31.00
69746;PMS7003;57018;50.278;19.134;2023-03-03T09:35:55;63.50;50.00;31.00
69746;PMS7003;57018;50.278;19.134;2023-03-03T09:38:30;62.00;48.50;34.50
69746;PMS7003;57018;50.278;19.134;2023-03-03T09:44:14;46.00;42.00;31.00
69746;PMS7003;57018;50.278;19.134;2023-03-03T09:46:58;61.00;48.00;31.00
69746;PMS7003;57018;50.278;19.134;2023-03-03T09:49:43;57.00;46.50;29.50
69746;PMS7003;57018;50.278;19.134;2023-03-03T09:52:28;68.00;55.00;33.00
69746;PMS7003;57018;50.278;19.134;2023-03-03T09:55:19;60.00;48.00;30.00
69746;PMS7003;57018;50.278;19.134;2023-03-03T09:58:03;51.00;43.00;27.50
69746;PMS7003;57018;50.278;19.134;2023-03-03T10:00:48;47.50;38.00;24.50
69746;PMS7003;57018;50.278;19.134;2023-03-03T10:06:27;53.00;41.50;25.50
69746;PMS7003;57018;50.278;19.134;2023-03-03T10:09:16;44.50;39.00;20.00
69746;PMS7003;57018;50.278;19.134;2023-03-03T10:12:05;52.00;44.00;27.50
69746;PMS7003;57018;50.278;19.134;2023-03-03T10:14:52;61.00;48.00;29.50
69746;PMS7003;57018;50.278;19.134;2023-03-03T10:17:48;45.00;37.00;20.00
69746;PMS7003;57018;50.278;19.134;2023-03-03T10:20:32;52.00;44.50;28.00
69746;PMS7003;57018;50.278;19.134;2023-03-03T10:23:12;57.50;46.50;29.50
69746;PMS7003;57018;50.278;19.134;2023-03-03T10:25:51;64.00;49.00;30.00
69746;PMS7003;57018;50.278;19.134;2023-03-03T10:28:31;58.00;50.00;30.00
69746;PMS7003;57018;50.278;19.134;2023-03-03T10:31:21;57.00;47.50;30.00
69746;PMS7003;57018;50.278;19.134;2023-03-03T10:34:04;65.00;50.00;30.00
69746;PMS7003;57018;50.278;19.134;2023-03-03T10:36:47;70.67;53.33;31.33
69746;PMS7003;57018;50.278;19.134;2023-03-03T10:39:26;65.00;51.50;31.50
69746;PMS7003;57018;50.278;19.134;2023-03-03T10:42:09;54.50;49.00;30.00
69746;PMS7003;57018;50.278;19.134;2023-03-03T10:44:55;57.00;43.00;26.00
69746;PMS7003;57018;50.278;19.134;2023-03-03T10:47:54;54.00;44.00;27.00
69746;PMS7003;57018;50.278;19.134;2023-03-03T10:50:35;60.00;48.00;28.00
69746;PMS7003;57018;50.278;19.134;2023-03-03T10:53:20;62.50;48.00;30.00
69746;PMS7003;57018;50.278;19.134;2023-03-03T10:55:59;63.00;50.00;31.00
69746;PMS7003;57018;50.278;19.134;2023-03-03T11:01:19;38.33;32.67;20.67
69746;PMS7003;57018;50.278;19.134;2023-03-03T11:06:50;48.00;39.50;27.00
69746;PMS7003;57018;50.278;19.134;2023-03-03T11:09:30;56.00;47.00;27.00
69746;PMS7003;57018;50.278;19.134;2023-03-03T11:12:11;37.00;37.00;30.50
69746;PMS7003;57018;50.278;19.134;2023-03-03T11:14:53;53.00;41.00;27.00
69746;PMS7003;57018;50.278;19.134;2023-03-03T11:17:49;56.67;44.00;28.00
69746;PMS7003;57018;50.278;19.134;2023-03-03T11:20:38;55.00;43.00;27.00
69746;PMS7003;57018;50.278;19.134;2023-03-03T11:23:23;52.00;45.00;23.00
69746;PMS7003;57018;50.278;19.134;2023-03-03T11:26:08;49.50;42.00;27.00
69746;PMS7003;57018;50.278;19.134;2023-03-03T11:28:51;57.00;45.00;27.00
69746;PMS7003;57018;50.278;19.134;2023-03-03T11:31:31;55.50;46.50;29.00
69746;PMS7003;57018;50.278;19.134;2023-03-03T11:34:11;62.00;49.00;30.00
69746;PMS7003;57018;50.278;19.134;2023-03-03T11:37:05;53.00;44.00;28.00
69746;PMS7003;57018;50.278;19.134;2023-03-03T11:39:37;58.00;46.00;31.00
69746;PMS7003;57018;50.278;19.134;2023-03-03T11:44:44;55.50;42.50;30.00
69746;PMS7003;57018;50.278;19.134;2023-03-03T11:47:17;62.00;49.00;27.00
69746;PMS7003;57018;50.278;19.134;2023-03-03T11:49:52;47.50;42.00;29.00
69746;PMS7003;57018;50.278;19.134;2023-03-03T11:52:30;45.00;42.00;23.00
69746;PMS7003;57018;50.278;19.134;2023-03-03T11:55:08;56.00;47.00;27.00
69746;PMS7003;57018;50.278;19.134;2023-03-03T11:57:44;51.00;43.00;26.00
69746;PMS7003;57018;50.278;19.134;2023-03-03T12:00:24;59.00;46.00;29.00
69746;PMS7003;57018;50.278;19.134;2023-03-03T12:03:14;52.00;43.00;25.00
69746;PMS7003;57018;50.278;19.134;2023-03-03T12:05:54;56.00;45.50;28.50
69746;PMS7003;57018;50.278;19.134;2023-03-03T12:08:33;59.00;47.00;29.00
69746;PMS7003;57018;50.278;19.134;2023-03-03T12:11:11;57.00;45.00;28.00
69746;PMS7003;57018;50.278;19.134;2023-03-03T12:13:51;61.00;45.50;26.00
69746;PMS7003;57018;50.278;19.134;2023-03-03T12:16:35;46.00;41.00;25.00
69746;PMS7003;57018;50.278;19.134;2023-03-03T12:19:16;48.50;41.00;26.00
69746;PMS7003;57018;50.278;19.134;2023-03-03T12:25:03;41.50;37.00;25.00
69746;PMS7003;57018;50.278;19.134;2023-03-03T12:27:51;57.00;42.00;26.00
69746;PMS7003;57018;50.278;19.134;2023-03-03T12:30:27;49.00;42.00;27.00
69746;PMS7003;57018;50.278;19.134;2023-03-03T12:33:15;59.00;46.00;26.00
69746;PMS7003;57018;50.278;19.134;2023-03-03T12:35:53;42.00;36.00;20.00
69746;PMS7003;57018;50.278;19.134;2023-03-03T12:38:32;46.00;38.00;24.00
69746;PMS7003;57018;50.278;19.134;2023-03-03T12:41:11;55.50;41.50;24.50
69746;PMS7003;57018;50.278;19.134;2023-03-03T12:43:54;41.50;37.50;22.50
69746;PMS7003;57018;50.278;19.134;2023-03-03T12:46:31;41.00;39.00;24.00
69746;PMS7003;57018;50.278;19.134;2023-03-03T12:49:08;51.00;36.00;18.00
69746;PMS7003;57018;50.278;19.134;2023-03-03T12:51:43;51.00;39.50;24.00
69746;PMS7003;57018;50.278;19.134;2023-03-03T12:59:59;63.00;46.00;29.00
69746;PMS7003;57018;50.278;19.134;2023-03-03T13:02:42;54.67;45.67;28.67
69746;PMS7003;57018;50.278;19.134;2023-03-03T13:05:26;67.00;49.00;29.00
69746;PMS7003;57018;50.278;19.134;2023-03-03T13:08:04;51.00;43.00;27.00
69746;PMS7003;57018;50.278;19.134;2023-03-03T13:10:50;61.00;44.00;24.00
69746;PMS7003;57018;50.278;19.134;2023-03-03T13:13:25;54.00;45.00;28.00
69746;PMS7003;57018;50.278;19.134;2023-03-03T13:16:03;49.00;43.00;23.00
69746;PMS7003;57018;50.278;19.134;2023-03-03T13:18:41;56.00;44.00;27.00
69746;PMS7003;57018;50.278;19.134;2023-03-03T13:21:21;51.50;41.00;27.50
69746;PMS7003;57018;50.278;19.134;2023-03-03T13:23:57;49.50;41.50;25.50
69746;PMS7003;57018;50.278;19.134;2023-03-03T13:26:34;53.50;38.50;25.00
69746;PMS7003;57018;50.278;19.134;2023-03-03T13:29:10;47.50;42.00;25.00
69746;PMS7003;57018;50.278;19.134;2023-03-03T13:31:46;42.00;35.00;20.00
69746;PMS7003;57018;50.278;19.134;2023-03-03T13:34:24;48.00;39.00;21.00
69746;PMS7003;57018;50.278;19.134;2023-03-03T13:39:34;53.50;44.00;28.00
69746;PMS7003;57018;50.278;19.134;2023-03-03T13:42:22;55.00;45.00;26.00
69746;PMS7003;57018;50.278;19.134;2023-03-03T13:44:59;53.00;44.00;28.00
69746;PMS7003;57018;50.278;19.134;2023-03-03T13:47:35;63.00;49.00;33.00
69746;PMS7003;57018;50.278;19.134;2023-03-03T13:50:16;64.00;51.00;30.00
69746;PMS7003;57018;50.278;19.134;2023-03-03T13:52:53;54.00;44.00;29.00
69746;PMS7003;57018;50.278;19.134;2023-03-03T13:55:39;59.00;48.00;30.00
69746;PMS7003;57018;50.278;19.134;2023-03-03T14:00:53;60.00;45.00;29.00
69746;PMS7003;57018;50.278;19.134;2023-03-03T14:03:31;60.00;47.50;28.50
69746;PMS7003;57018;50.278;19.134;2023-03-03T14:06:27;65.00;47.00;28.00
69746;PMS7003;57018;50.278;19.134;2023-03-03T14:09:02;50.00;41.50;28.50
69746;PMS7003;57018;50.278;19.134;2023-03-03T14:11:47;57.00;45.00;27.00
69746;PMS7003;57018;50.278;19.134;2023-03-03T14:14:24;64.00;47.00;30.00
69746;PMS7003;57018;50.278;19.134;2023-03-03T14:17:07;61.50;50.00;30.00
69746;PMS7003;57018;50.278;19.134;2023-03-03T14:19:44;63.00;48.00;29.00
69746;PMS7003;57018;50.278;19.134;2023-03-03T14:22:20;54.50;44.50;28.00
69746;PMS7003;57018;50.278;19.134;2023-03-03T14:24:58;62.00;50.00;29.00
69746;PMS7003;57018;50.278;19.134;2023-03-03T14:27:34;54.00;43.00;25.50
69746;PMS7003;57018;50.278;19.134;2023-03-03T14:30:26;48.50;37.50;23.00
69746;PMS7003;57018;50.278;19.134;2023-03-03T14:33:18;63.00;46.50;28.50
69746;PMS7003;57018;50.278;19.134;2023-03-03T14:36:03;59.00;49.00;28.50
69746;PMS7003;57018;50.278;19.134;2023-03-03T14:38:42;57.00;48.00;30.00
69746;PMS7003;57018;50.278;19.134;2023-03-03T14:41:16;58.50;47.00;29.00
69746;PMS7003;57018;50.278;19.134;2023-03-03T14:43:56;54.50;42.00;22.50
69746;PMS7003;57018;50.278;19.134;2023-03-03T14:49:14;52.00;43.00;27.50
69746;PMS7003;57018;50.278;19.134;2023-03-03T14:51:57;59.00;47.00;29.00
69746;PMS7003;57018;50.278;19.134;2023-03-03T14:54:33;70.00;55.00;34.00
69746;PMS7003;57018;50.278;19.134;2023-03-03T14:57:11;64.50;50.50;31.50
69746;PMS7003;57018;50.278;19.134;2023-03-03T14:59:53;61.00;50.50;31.00
69746;PMS7003;57018;50.278;19.134;2023-03-03T15:02:32;60.00;47.00;27.00
69746;PMS7003;57018;50.278;19.134;2023-03-03T15:05:17;43.00;40.00;25.00
69746;PMS7003;57018;50.278;19.134;2023-03-03T15:07:49;43.50;38.00;19.00
69746;PMS7003;57018;50.278;19.134;2023-03-03T15:10:29;50.50;37.00;25.00
69746;PMS7003;57018;50.278;19.134;2023-03-03T15:16:10;53.00;44.00;27.67
69746;PMS7003;57018;50.278;19.134;2023-03-03T15:18:59;57.00;46.00;28.00
69746;PMS7003;57018;50.278;19.134;2023-03-03T15:22:09;44.00;42.00;26.00
69746;PMS7003;57018;50.278;19.134;2023-03-03T15:24:48;42.00;37.00;26.00
69746;PMS7003;57018;50.278;19.134;2023-03-03T15:27:25;53.50;42.00;28.00